Time;durP1;ratioP1;P1;durP2;ratioP2;P2;SDS_P1;SDS_P2;PMS_P1;PMS_P2;Temp;Humidity;BMP_temperature;BMP_pressure;BME280_temperature;BME280_humidity;BME280_pressure;Samples;Min_cycle;Max_cycle;Signal;HPM_P1;HPM_P2
2021/10/06 00:01:48;;;;;;;2.00;1.10;;;;;;;12.36;100.00;100514.47;6276708;28;20052;-78
2021/10/06 00:04:49;;;;;;;2.17;0.98;;;;;;;12.33;100.00;100517.28;6276493;28;20048;-80
2021/10/06 00:07:50;;;;;;;6.68;1.77;;;;;;;12.27;100.00;100515.06;6258209;28;20045;-77
2021/10/06 00:10:53;;;;;;;2.47;1.10;;;;;;;12.25;100.00;100520.41;6251693;28;20072;-81
2021/10/06 00:13:55;;;;;;;1.15;1.05;;;;;;;12.23;100.00;100524.94;6251367;28;20064;-77
2021/10/06 00:16:56;;;;;;;3.50;1.10;;;;;;;12.19;100.00;100526.91;6252898;28;20408;-78
2021/10/06 00:19:58;;;;;;;4.45;1.05;;;;;;;12.20;100.00;100535.66;6251708;28;20504;-80
2021/10/06 00:22:59;;;;;;;2.03;1.50;;;;;;;12.16;100.00;100540.28;6251596;28;20053;-78
2021/10/06 00:26:04;;;;;;;2.30;1.15;;;;;;;12.11;100.00;100536.25;6252921;28;20049;-78
2021/10/06 00:29:06;;;;;;;4.85;1.40;;;;;;;12.06;100.00;100544.44;6253158;28;20049;-79
2021/10/06 00:32:07;;;;;;;6.15;1.20;;;;;;;12.09;100.00;100552.16;6253688;28;20054;-78
2021/10/06 00:35:10;;;;;;;1.42;1.17;;;;;;;12.04;100.00;100548.13;6253143;28;20409;-79
2021/10/06 00:38:11;;;;;;;2.20;1.52;;;;;;;12.03;100.00;100549.88;6252681;28;20412;-79
2021/10/06 00:41:14;;;;;;;5.07;1.70;;;;;;;12.00;100.00;100547.47;6253092;28;20056;-79
2021/10/06 00:44:16;;;;;;;2.97;1.10;;;;;;;12.01;100.00;100551.78;6252942;28;20049;-79
2021/10/06 00:47:18;;;;;;;1.58;1.10;;;;;;;11.99;100.00;100552.81;6254657;28;20512;-79
2021/10/06 00:50:19;;;;;;;3.95;1.23;;;;;;;11.97;100.00;100560.81;6253430;28;20045;-78
2021/10/06 00:53:24;;;;;;;3.03;1.48;;;;;;;11.92;100.00;100557.63;6254338;28;20057;-79
2021/10/06 00:56:27;;;;;;;2.22;1.17;;;;;;;11.92;100.00;100566.38;6254713;28;20052;-79
2021/10/06 00:59:29;;;;;;;1.75;1.20;;;;;;;11.92;100.00;100562.88;6253001;28;20048;-78
2021/10/06 01:02:31;;;;;;;2.95;1.33;;;;;;;11.87;100.00;100573.72;6254463;28;20060;-79
2021/10/06 01:05:32;;;;;;;1.20;0.88;;;;;;;11.97;100.00;100573.13;6254018;28;20052;-78
2021/10/06 01:08:35;;;;;;;3.80;0.93;;;;;;;11.89;100.00;100577.06;6253641;28;20394;-78
2021/10/06 01:11:38;;;;;;;3.08;1.20;;;;;;;11.89;100.00;100578.88;6252902;28;20492;-77
2021/10/06 01:14:40;;;;;;;1.05;0.82;;;;;;;11.91;100.00;100585.75;6254190;28;20421;-79
2021/10/06 01:17:42;;;;;;;1.13;0.90;;;;;;;11.90;100.00;100584.06;6253878;28;20056;-79
2021/10/06 01:20:43;;;;;;;1.00;0.90;;;;;;;11.90;100.00;100585.84;6254567;28;20045;-79
2021/10/06 01:23:48;;;;;;;1.88;1.00;;;;;;;11.87;100.00;100588.66;6253794;28;20049;-79
2021/10/06 01:26:50;;;;;;;1.15;1.00;;;;;;;11.81;100.00;100587.22;6254305;28;20057;-79
2021/10/06 01:29:51;;;;;;;4.72;1.33;;;;;;;11.77;100.00;100588.34;6254373;28;20503;-79
2021/10/06 01:32:52;;;;;;;1.80;1.02;;;;;;;11.72;100.00;100593.06;6254352;28;20060;-79
2021/10/06 01:35:54;;;;;;;2.03;1.15;;;;;;;11.70;100.00;100594.91;6254743;28;20056;-79
2021/10/06 01:38:56;;;;;;;0.90;0.80;;;;;;;11.67;100.00;100598.59;6255538;28;20042;-78
2021/10/06 01:41:58;;;;;;;0.98;0.90;;;;;;;11.61;100.00;100600.72;6255574;28;20108;-79
2021/10/06 01:44:59;;;;;;;1.40;1.20;;;;;;;11.59;100.00;100603.47;6256053;28;20052;-78
2021/10/06 01:48:05;;;;;;;1.13;1.02;;;;;;;11.58;100.00;100607.03;6260052;28;20049;-80
2021/10/06 01:51:06;;;;;;;3.22;1.00;;;;;;;11.62;100.00;100607.69;6260137;28;20428;-78
2021/10/06 01:54:09;;;;;;;1.48;1.02;;;;;;;11.60;100.00;100607.78;6260278;28;20076;-79
2021/10/06 01:57:10;;;;;;;2.08;1.13;;;;;;;11.56;100.00;100606.28;6259924;28;20049;-79
2021/10/06 02:00:13;;;;;;;1.13;0.90;;;;;;;11.56;100.00;100614.16;6259880;28;20488;-79
2021/10/06 02:03:15;;;;;;;2.65;1.65;;;;;;;11.51;100.00;100618.88;6259908;28;20045;-79
2021/10/06 02:06:16;;;;;;;3.15;1.58;;;;;;;11.53;100.00;100622.22;6259306;28;20050;-78
2021/10/06 02:09:18;;;;;;;2.65;1.20;;;;;;;11.53;100.00;100614.34;6259246;28;20408;-79
2021/10/06 02:12:20;;;;;;;1.77;1.40;;;;;;;11.45;100.00;100619.22;6260102;28;20057;-77
2021/10/06 02:15:21;;;;;;;2.08;1.20;;;;;;;11.41;100.00;100623.81;6258256;28;20049;-79
2021/10/06 02:18:23;;;;;;;2.45;1.08;;;;;;;11.37;100.00;100622.31;6258425;28;20045;-79
2021/10/06 02:21:24;;;;;;;3.63;1.35;;;;;;;11.33;100.00;100628.69;6260047;28;20045;-79
2021/10/06 02:24:27;;;;;;;5.63;1.27;;;;;;;11.30;100.00;100628.84;6260406;28;20056;-79
2021/10/06 02:27:28;;;;;;;2.67;1.30;;;;;;;11.31;100.00;100627.94;6260811;28;20056;-79
2021/10/06 02:30:29;;;;;;;1.58;1.35;;;;;;;11.31;100.00;100634.97;6269443;28;20041;-78
2021/10/06 02:33:31;;;;;;;2.03;1.30;;;;;;;11.31;100.00;100624.44;6278240;28;20535;-78
2021/10/06 02:36:32;;;;;;;1.58;1.02;;;;;;;11.30;100.00;100630.63;6278483;28;20049;-79
2021/10/06 02:39:35;;;;;;;2.65;1.80;;;;;;;11.24;100.00;100633.63;6276818;28;20041;-80
2021/10/06 02:42:37;;;;;;;8.18;1.60;;;;;;;11.22;100.00;100638.13;6275714;28;20057;-79
2021/10/06 02:45:38;;;;;;;3.03;1.13;;;;;;;11.21;100.00;100632.00;6259439;28;20049;-80
2021/10/06 02:48:40;;;;;;;1.10;1.00;;;;;;;11.21;100.00;100639.91;6258502;28;20052;-78
2021/10/06 02:51:41;;;;;;;1.27;1.17;;;;;;;11.20;100.00;100642.63;6259655;28;20423;-79
2021/10/06 02:54:44;;;;;;;1.52;1.30;;;;;;;11.21;100.00;100641.69;6258213;28;20053;-79
2021/10/06 02:57:45;;;;;;;2.42;1.50;;;;;;;11.20;100.00;100638.22;6256361;28;20538;-79
2021/10/06 03:00:46;;;;;;;3.38;1.58;;;;;;;11.22;100.00;100651.28;6258933;28;20045;-79
2021/10/06 03:03:48;;;;;;;4.43;1.17;;;;;;;11.22;100.00;100648.63;6258941;28;20049;-79
2021/10/06 03:06:49;;;;;;;1.27;1.10;;;;;;;11.22;100.00;100648.63;6261437;28;20045;-79
2021/10/06 03:09:52;;;;;;;1.48;1.15;;;;;;;11.25;100.00;100651.94;6270586;28;20056;-78
2021/10/06 03:12:54;;;;;;;1.63;1.05;;;;;;;11.24;100.00;100652.88;6273793;28;20050;-79
2021/10/06 03:15:57;;;;;;;1.50;0.98;;;;;;;11.29;100.00;100661.38;6271551;28;20053;-79
2021/10/06 03:18:59;;;;;;;1.85;1.13;;;;;;;11.27;100.00;100663.25;6273491;28;20049;-78
2021/10/06 03:22:00;;;;;;;3.53;1.15;;;;;;;11.32;100.00;100665.63;6270962;28;20057;-78
2021/10/06 03:25:04;;;;;;;2.60;0.90;;;;;;;11.30;100.00;100668.31;6266934;28;20480;-78
2021/10/06 03:28:06;;;;;;;0.85;0.80;;;;;;;11.31;100.00;100666.53;6253534;28;20057;-79
2021/10/06 03:31:07;;;;;;;1.33;1.23;;;;;;;11.35;100.00;100673.31;6250893;28;20068;-78
2021/10/06 03:34:09;;;;;;;1.50;1.33;;;;;;;11.33;100.00;100672.56;6250123;28;20045;-78
2021/10/06 03:37:10;;;;;;;2.70;1.00;;;;;;;11.34;100.00;100676.88;6250237;28;20389;-80
2021/10/06 03:40:13;;;;;;;1.77;1.08;;;;;;;11.34;100.00;100684.78;6250747;28;20057;-79
2021/10/06 03:43:15;;;;;;;1.55;0.95;;;;;;;11.29;100.00;100689.47;6250119;28;20045;-79
2021/10/06 03:46:16;;;;;;;1.00;0.90;;;;;;;11.25;100.00;100687.94;6248596;28;20056;-80
2021/10/06 03:49:18;;;;;;;2.25;1.20;;;;;;;11.25;100.00;100682.66;6249651;28;20050;-78
2021/10/06 03:52:19;;;;;;;5.68;1.48;;;;;;;11.26;100.00;100687.00;6249355;28;20053;-78
2021/10/06 03:55:22;;;;;;;2.58;1.25;;;;;;;11.26;100.00;100693.09;6249366;28;20116;-78
2021/10/06 03:58:24;;;;;;;1.60;1.30;;;;;;;11.22;100.00;100685.47;6249604;28;20534;-78
2021/10/06 04:01:25;;;;;;;1.20;1.08;;;;;;;11.18;100.00;100690.94;6250552;28;20061;-79
2021/10/06 04:04:26;;;;;;;1.60;1.50;;;;;;;11.20;100.00;100703.97;6248489;28;20072;-78
2021/10/06 04:07:28;;;;;;;2.95;1.38;;;;;;;11.22;100.00;100698.63;6249002;28;20500;-77
2021/10/06 04:10:30;;;;;;;1.27;1.17;;;;;;;11.21;100.00;100702.19;6248901;28;20072;-78
2021/10/06 04:13:32;;;;;;;1.27;1.15;;;;;;;11.21;100.00;100704.81;6248717;28;20045;-80
2021/10/06 04:16:33;;;;;;;4.18;1.88;;;;;;;11.23;100.00;100695.94;6248825;28;20056;-78
2021/10/06 04:19:35;;;;;;;1.52;1.13;;;;;;;11.18;100.00;100706.69;6249575;28;20056;-78
2021/10/06 04:22:36;;;;;;;1.70;1.15;;;;;;;11.19;100.00;100699.66;6249052;28;20052;-78
2021/10/06 04:25:39;;;;;;;1.45;1.10;;;;;;;11.13;100.00;100702.66;6248734;28;20049;-78
2021/10/06 04:28:40;;;;;;;1.67;1.00;;;;;;;11.14;100.00;100709.59;6248708;28;20049;-78
2021/10/06 04:31:41;;;;;;;6.25;1.52;;;;;;;11.11;100.00;100722.91;6249306;28;20566;-78
2021/10/06 04:34:43;;;;;;;2.45;1.27;;;;;;;11.06;100.00;100725.78;6248575;28;20057;-78
2021/10/06 04:37:44;;;;;;;2.97;2.17;;;;;;;11.05;100.00;100729.38;6248497;28;20049;-78
2021/10/06 04:40:47;;;;;;;1.50;1.00;;;;;;;11.06;100.00;100738.09;6249070;28;20049;-78
2021/10/06 04:43:48;;;;;;;2.40;1.65;;;;;;;11.06;100.00;100738.09;6248206;28;20045;-80
2021/10/06 04:46:49;;;;;;;3.65;1.10;;;;;;;11.02;100.00;100737.41;6248569;28;20053;-80
2021/10/06 04:49:51;;;;;;;1.10;0.98;;;;;;;10.99;100.00;100749.88;6248488;28;20041;-78
2021/10/06 04:52:52;;;;;;;1.50;0.95;;;;;;;10.95;100.00;100749.22;6248420;28;20049;-80
2021/10/06 04:55:55;;;;;;;1.33;1.00;;;;;;;10.95;100.00;100753.63;6248264;28;20152;-78
2021/10/06 04:58:56;;;;;;;1.95;1.20;;;;;;;10.92;100.00;100752.00;6248859;28;20049;-78
2021/10/06 05:01:59;;;;;;;1.77;1.17;;;;;;;10.83;100.00;100757.75;6248582;28;20064;-78
2021/10/06 05:05:01;;;;;;;1.70;1.52;;;;;;;10.81;100.00;100764.88;6248667;28;20049;-78
2021/10/06 05:08:02;;;;;;;3.63;1.70;;;;;;;10.76;100.00;100773.00;6248593;28;20496;-79
2021/10/06 05:11:05;;;;;;;1.77;1.55;;;;;;;10.65;100.00;100773.59;6248511;28;20046;-77
2021/10/06 05:14:06;;;;;;;0.82;0.75;;;;;;;10.68;100.00;100780.47;6248405;28;20053;-80
2021/10/06 05:17:07;;;;;;;1.00;0.90;;;;;;;10.69;100.00;100787.41;6247641;28;20080;-80
2021/10/06 05:20:09;;;;;;;1.83;1.33;;;;;;;10.66;100.00;100787.56;6249093;28;20050;-80
2021/10/06 05:23:11;;;;;;;3.70;1.20;;;;;;;10.65;100.00;100785.88;6253064;28;20053;-80
2021/10/06 05:26:13;;;;;;;5.65;1.13;;;;;;;10.64;100.00;100784.19;6252610;28;20060;-80
2021/10/06 05:29:15;;;;;;;1.27;1.02;;;;;;;10.57;100.00;100791.53;6252573;28;20049;-79
2021/10/06 05:32:16;;;;;;;1.88;1.33;;;;;;;10.48;100.00;100780.66;6252777;28;20484;-79
2021/10/06 05:35:18;;;;;;;3.10;1.55;;;;;;;10.47;100.00;100779.81;6252153;28;20049;-79
2021/10/06 05:38:19;;;;;;;3.30;1.50;;;;;;;10.50;100.00;100784.91;6252911;28;20046;-79
2021/10/06 05:41:22;;;;;;;4.55;2.78;;;;;;;10.54;100.00;100794.34;6252620;28;20404;-80
2021/10/06 05:44:23;;;;;;;1.30;1.08;;;;;;;10.56;100.00;100797.72;6252340;28;20057;-80
2021/10/06 05:47:25;;;;;;;1.85;1.10;;;;;;;10.62;100.00;100797.41;6252915;28;20060;-79
2021/10/06 05:50:26;;;;;;;2.15;1.20;;;;;;;10.61;100.00;100808.84;6252101;28;20045;-78
2021/10/06 05:53:28;;;;;;;4.13;2.13;;;;;;;10.62;100.00;100809.69;6252337;28;20050;-79
2021/10/06 05:56:31;;;;;;;2.65;1.38;;;;;;;10.71;100.00;100805.72;6270742;22;20060;-74
2021/10/06 05:59:34;;;;;;;5.30;1.15;;;;;;;10.74;100.00;100809.06;6300186;28;20044;-77
2021/10/06 06:02:35;;;;;;;1.40;1.08;;;;;;;10.72;100.00;100815.31;6281260;28;20049;-76
2021/10/06 06:05:40;;;;;;;1.38;0.75;;;;;;;10.70;100.00;100823.28;6283327;28;20052;-76
2021/10/06 06:08:42;;;;;;;1.42;1.15;;;;;;;10.68;100.00;100819.91;6299868;28;20469;-77
2021/10/06 06:11:44;;;;;;;1.65;0.90;;;;;;;10.71;100.00;100821.50;6300970;28;20044;-76
2021/10/06 06:14:45;;;;;;;2.05;0.93;;;;;;;10.73;100.00;100830.16;6299739;28;20609;-77
2021/10/06 06:17:47;;;;;;;5.13;1.40;;;;;;;10.69;100.00;100824.22;6300015;28;20055;-76
2021/10/06 06:20:48;;;;;;;4.85;1.10;;;;;;;10.74;100.00;100831.84;6300385;28;20483;-77
2021/10/06 06:23:50;;;;;;;4.28;0.47;;;;;;;10.77;100.00;100842.22;6299690;28;20060;-76
2021/10/06 06:26:52;;;;;;;1.17;1.00;;;;;;;10.80;100.00;100840.25;6299897;28;20503;-76
2021/10/06 06:29:54;;;;;;;1.60;0.90;;;;;;;10.81;100.00;100839.34;6299695;28;20045;-77
2021/10/06 06:32:55;;;;;;;2.33;1.10;;;;;;;10.81;100.00;100839.34;6299486;28;20056;-76
2021/10/06 06:35:56;;;;;;;2.10;1.00;;;;;;;10.81;100.00;100839.34;6299183;28;20048;-76
2021/10/06 06:38:57;;;;;;;1.00;0.90;;;;;;;10.81;100.00;100852.50;6299690;28;20533;-76
2021/10/06 06:42:00;;;;;;;1.65;0.77;;;;;;;10.84;100.00;100854.09;6299314;28;20044;-77
2021/10/06 06:45:02;;;;;;;2.78;1.10;;;;;;;10.90;100.00;100849.38;6299310;28;20052;-76
2021/10/06 06:48:03;;;;;;;1.20;0.80;;;;;;;10.94;100.00;100852.69;6299189;28;20059;-77
2021/10/06 06:51:04;;;;;;;0.77;0.68;;;;;;;11.05;100.00;100862.63;6299029;28;20044;-77
2021/10/06 06:54:06;;;;;;;1.25;0.77;;;;;;;11.09;100.00;100854.50;6299087;28;20055;-77
2021/10/06 06:57:09;;;;;;;0.70;0.68;;;;;;;11.14;100.00;100860.38;6297061;28;20048;-76
2021/10/06 07:00:11;;;;;;;0.77;0.77;;;;;;;11.25;100.00;100861.56;6297662;28;20123;-77
2021/10/06 07:03:12;;;;;;;1.17;0.80;;;;;;;11.26;100.00;100864.09;6298634;28;20045;-76
2021/10/06 07:06:14;;;;;;;0.80;0.70;;;;;;;11.35;100.00;100871.47;6299134;28;20048;-77
2021/10/06 07:09:22;;;;;;;1.83;1.27;;;;;;;11.38;100.00;100871.31;6299027;28;20670;-76
2021/10/06 07:12:25;;;;;;;1.25;0.88;;;;;;;11.46;99.86;100868.28;6298986;28;20084;-77
2021/10/06 07:15:26;;;;;;;1.02;0.82;;;;;;;11.56;100.00;100877.38;6298734;28;20550;-77
2021/10/06 07:18:29;;;;;;;0.90;0.90;;;;;;;11.58;98.53;100879.91;6298601;28;20052;-77
2021/10/06 07:21:30;;;;;;;2.80;0.88;;;;;;;11.64;98.66;100888.31;6298504;28;20049;-77
2021/10/06 07:24:32;;;;;;;1.85;0.70;;;;;;;11.69;97.41;100891.53;6298575;28;20044;-76
2021/10/06 07:27:35;;;;;;;3.30;0.85;;;;;;;11.75;97.48;100895.63;6298345;28;20048;-76
2021/10/06 07:30:36;;;;;;;0.80;0.77;;;;;;;11.71;96.77;100898.50;6298722;28;20048;-77
2021/10/06 07:33:38;;;;;;;0.80;0.75;;;;;;;11.74;98.93;100906.25;6298361;28;20461;-77
2021/10/06 07:36:39;;;;;;;4.85;0.90;;;;;;;11.72;98.34;100908.09;6298181;28;20056;-77
2021/10/06 07:39:41;;;;;;;0.85;0.77;;;;;;;11.77;97.02;100917.47;6291739;28;20511;-76
2021/10/06 07:42:44;;;;;;;1.08;0.73;;;;;;;11.89;96.30;100921.22;6292720;28;20407;-77
2021/10/06 07:45:46;;;;;;;3.33;1.00;;;;;;;11.94;95.81;100919.16;6291645;28;20045;-77
2021/10/06 07:48:47;;;;;;;0.88;0.68;;;;;;;11.97;95.39;100920.78;6297953;28;20057;-77
2021/10/06 07:51:49;;;;;;;2.53;0.70;;;;;;;11.99;93.60;100917.13;6297726;28;20048;-76
2021/10/06 07:54:50;;;;;;;1.00;0.70;;;;;;;12.05;93.30;100923.84;6298191;28;20052;-76
2021/10/06 07:57:53;;;;;;;0.75;0.75;;;;;;;12.18;93.38;100927.47;6298032;28;20654;-77
2021/10/06 08:00:54;;;;;;;6.70;1.15;;;;;;;12.21;92.98;100929.91;6298003;28;20415;-77
2021/10/06 08:03:55;;;;;;;1.92;0.80;;;;;;;12.23;90.55;100933.34;6297050;28;20053;-76
2021/10/06 08:06:57;;;;;;;1.63;0.85;;;;;;;12.27;90.89;100931.38;6297301;28;20052;-76
2021/10/06 08:09:58;;;;;;;1.45;0.90;;;;;;;12.34;91.79;100936.19;6297086;28;20044;-77
2021/10/06 08:13:03;;;;;;;1.88;0.60;;;;;;;12.47;91.27;100943.38;6295096;28;20044;-74
2021/10/06 08:16:05;;;;;;;1.10;0.68;;;;;;;12.52;90.76;100939.53;6294150;28;20514;-76
2021/10/06 08:19:06;;;;;;;0.60;0.55;;;;;;;12.61;90.06;100949.56;6295437;28;20060;-75
2021/10/06 08:22:08;;;;;;;3.13;0.60;;;;;;;12.64;91.11;100957.28;6296943;28;20055;-76
2021/10/06 08:25:09;;;;;;;0.60;0.60;;;;;;;12.64;88.69;100949.38;6297005;28;20499;-75
2021/10/06 08:28:12;;;;;;;0.88;0.70;;;;;;;12.78;88.48;100958.28;6291409;28;20519;-76
2021/10/06 08:31:14;;;;;;;0.55;0.55;;;;;;;12.77;86.81;100967.97;6280789;28;20056;-77
2021/10/06 08:34:15;;;;;;;0.90;0.82;;;;;;;12.69;88.96;100971.06;6294791;28;20056;-76
2021/10/06 08:37:16;;;;;;;0.82;0.75;;;;;;;12.76;87.86;100979.44;6283784;28;20247;-77
2021/10/06 08:40:18;;;;;;;0.60;0.60;;;;;;;12.79;87.81;100978.41;6271933;28;20052;-75
2021/10/06 08:43:20;;;;;;;0.65;0.55;;;;;;;12.82;85.66;100976.47;6271574;28;20049;-75
2021/10/06 08:46:23;;;;;;;2.53;1.00;;;;;;;12.89;84.59;100980.41;6289183;28;20509;-75
2021/10/06 08:49:25;;;;;;;0.55;0.40;;;;;;;12.87;84.40;100979.66;6296332;28;20048;-76
2021/10/06 08:52:26;;;;;;;4.28;0.60;;;;;;;12.90;83.73;100982.13;6296619;28;20044;-75
2021/10/06 08:55:30;;;;;;;1.55;1.00;;;;;;;12.99;84.79;100980.75;6295283;28;20056;-75
2021/10/06 08:58:33;;;;;;;0.80;0.75;;;;;;;12.94;84.64;100981.03;6296180;28;20047;-76
2021/10/06 09:01:34;;;;;;;0.85;0.47;;;;;;;13.02;82.12;100982.34;6294158;28;20506;-76
2021/10/06 09:04:35;;;;;;;0.77;0.60;;;;;;;13.07;82.24;100985.53;6271238;28;20467;-75
2021/10/06 09:07:56;;;;;;;1.20;0.70;;;;;;;13.16;82.68;100999.03;6271643;28;20049;-77
2021/10/06 09:10:58;;;;;;;0.90;0.57;;;;;;;13.26;81.92;100991.44;6271839;28;20059;-76
2021/10/06 09:14:02;;;;;;;1.08;0.45;;;;;;;13.26;81.33;100991.44;6270751;28;20057;-76
2021/10/06 09:17:06;;;;;;;0.30;0.30;;;;;;;13.15;81.34;100994.69;6271548;28;20060;-76
2021/10/06 09:20:11;;;;;;;2.95;0.40;;;;;;;13.04;81.52;101006.84;6271139;28;20057;-75
2021/10/06 09:23:15;;;;;;;1.35;0.57;;;;;;;13.05;82.95;101005.91;6271467;28;20448;-76
2021/10/06 09:26:16;;;;;;;0.35;0.35;;;;;;;13.11;81.98;101008.16;6271083;28;20060;-76
2021/10/06 09:29:22;;;;;;;0.38;0.38;;;;;;;13.19;82.44;101008.56;6271299;28;20053;-76
2021/10/06 09:32:27;;;;;;;1.77;0.38;;;;;;;13.29;81.15;101017.66;6271523;28;20045;-75
2021/10/06 09:35:28;;;;;;;1.10;0.50;;;;;;;13.47;80.08;101020.97;6270812;28;20055;-75
2021/10/06 09:38:38;;;;;;;0.40;0.40;;;;;;;13.40;79.76;101017.03;6295935;28;20071;-75
2021/10/06 09:41:43;;;;;;;0.90;0.50;;;;;;;13.43;80.90;101019.44;6296231;28;20053;-75
2021/10/06 09:44:53;;;;;;;0.30;0.30;;;;;;;13.56;80.76;101020.41;6295815;28;20499;-76
2021/10/06 09:48:08;;;;;;;0.75;0.75;;;;;;;13.51;80.73;101019.00;6295815;28;20045;-75
2021/10/06 09:51:09;;;;;;;4.35;0.98;;;;;;;13.51;81.13;101025.13;6296169;28;20051;-76
2021/10/06 09:54:11;;;;;;;4.22;0.90;;;;;;;13.47;81.66;101026.25;6295440;28;20446;-76
2021/10/06 09:57:21;;;;;;;0.90;0.38;;;;;;;13.41;79.28;101030.13;6296180;28;20045;-77
2021/10/06 10:00:24;;;;;;;0.55;0.40;;;;;;;13.36;79.20;101026.91;6295595;28;20044;-75
2021/10/06 10:03:25;;;;;;;0.80;0.30;;;;;;;13.40;76.53;101030.22;6294667;28;20076;-75
2021/10/06 10:06:27;;;;;;;0.35;0.30;;;;;;;13.40;77.18;101035.50;6296325;28;20417;-75
2021/10/06 10:09:28;;;;;;;0.75;0.40;;;;;;;13.29;78.07;101041.41;6300424;28;20049;-76
2021/10/06 10:12:30;;;;;;;0.80;0.60;;;;;;;13.31;79.46;101039.53;6300216;28;20053;-76
2021/10/06 10:15:33;;;;;;;1.67;0.40;;;;;;;13.38;76.42;101035.56;6300132;28;20041;-76
2021/10/06 10:18:34;;;;;;;0.93;0.50;;;;;;;13.43;76.99;101051.97;6299581;28;20067;-76
2021/10/06 10:21:37;;;;;;;0.77;0.30;;;;;;;13.50;76.13;101039.28;6300680;28;20052;-75
2021/10/06 10:24:46;;;;;;;0.75;0.50;;;;;;;13.47;76.00;101046.53;6299885;28;20056;-76
2021/10/06 10:28:07;;;;;;;1.73;0.50;;;;;;;13.38;75.52;101056.69;6300148;28;20056;-76
2021/10/06 10:31:10;;;;;;;1.83;0.40;;;;;;;13.30;78.19;101068.66;6299584;28;20081;-75
2021/10/06 10:34:11;;;;;;;1.50;0.40;;;;;;;13.03;83.87;101077.22;6299739;28;20056;-75
2021/10/06 10:37:12;;;;;;;2.15;1.13;;;;;;;12.62;90.02;101080.44;6299562;28;20055;-77
2021/10/06 10:40:34;;;;;;;0.45;0.38;;;;;;;12.39;91.63;101080.88;6299704;28;20049;-75
2021/10/06 10:43:57;;;;;;;0.90;0.50;;;;;;;12.31;92.16;101085.72;6299133;28;20087;-74
2021/10/06 10:47:01;;;;;;;1.40;0.43;;;;;;;12.24;89.27;101097.53;6299471;28;20048;-77
2021/10/06 10:50:03;;;;;;;0.28;0.28;;;;;;;12.25;90.38;101101.88;6298155;28;20048;-73
2021/10/06 10:53:06;;;;;;;0.40;0.40;;;;;;;12.27;91.52;101105.28;6298258;28;20044;-76
2021/10/06 10:56:11;;;;;;;0.50;0.40;;;;;;;12.42;90.84;101112.34;6298811;28;20048;-75
2021/10/06 10:59:14;;;;;;;0.20;0.20;;;;;;;12.63;88.46;101111.16;6299400;28;20048;-76
2021/10/06 11:02:19;;;;;;;0.57;0.43;;;;;;;12.87;85.23;101115.97;6298889;28;20052;-76
2021/10/06 11:05:21;;;;;;;1.75;0.75;;;;;;;12.93;84.59;101116.47;6298940;28;20052;-76
2021/10/06 11:08:24;;;;;;;2.28;0.50;;;;;;;13.09;83.74;101111.19;6298828;28;20045;-76
2021/10/06 11:11:30;;;;;;;2.10;0.38;;;;;;;13.27;81.97;101116.34;6298644;28;20048;-76
2021/10/06 11:14:32;;;;;;;0.40;0.40;;;;;;;13.38;81.71;101127.13;6298708;28;20048;-77
2021/10/06 11:17:34;;;;;;;2.00;0.60;;;;;;;13.28;81.35;101118.91;6297823;28;20051;-77
2021/10/06 11:20:44;;;;;;;0.30;0.30;;;;;;;13.29;77.94;101120.59;6298852;28;20061;-77
2021/10/06 11:23:46;;;;;;;;;;;;;;;13.34;79.74;101125.59;6299086;28;20056;-75
2021/10/06 11:26:49;;;;;;;1.55;0.35;;;;;;;13.66;79.18;101124.53;6299355;28;20381;-75
2021/10/06 11:29:52;;;;;;;1.13;0.50;;;;;;;14.06;76.55;101131.84;6298650;28;20052;-77
2021/10/06 11:32:54;;;;;;;0.30;0.30;;;;;;;14.21;74.58;101137.00;6298270;28;20407;-75
2021/10/06 11:36:09;;;;;;;0.40;0.30;;;;;;;14.00;70.39;101133.06;6298144;28;20479;-77
2021/10/06 11:39:12;;;;;;;0.30;0.30;;;;;;;14.12;71.56;101132.28;6299714;28;20068;-75
2021/10/06 11:42:14;;;;;;;0.20;0.20;;;;;;;14.08;72.60;101130.81;6298318;28;20059;-76
2021/10/06 11:45:18;;;;;;;0.20;0.20;;;;;;;13.92;73.44;101144.09;6297984;28;20056;-76
2021/10/06 11:48:23;;;;;;;0.20;0.20;;;;;;;13.82;73.53;101153.53;6297673;28;20067;-75
2021/10/06 11:51:40;;;;;;;0.30;0.30;;;;;;;13.68;72.70;101150.88;6297648;28;20052;-76
2021/10/06 11:54:42;;;;;;;0.60;0.47;;;;;;;13.64;75.42;101152.00;6297605;28;20487;-76
2021/10/06 11:57:43;;;;;;;0.20;0.20;;;;;;;13.60;75.40;101153.09;6302881;22;20496;-77
2021/10/06 12:00:44;;;;;;;0.20;0.20;;;;;;;13.57;73.39;101166.50;6283988;28;20053;-80
2021/10/06 12:03:47;;;;;;;0.22;0.22;;;;;;;13.58;74.69;101158.50;6273904;28;20512;-78
2021/10/06 12:06:55;;;;;;;0.40;0.30;;;;;;;13.59;74.64;101164.63;6260903;28;20049;-78
2021/10/06 12:10:00;;;;;;;1.35;0.70;;;;;;;13.60;74.76;101169.81;6250295;28;20052;-79
2021/10/06 12:13:01;;;;;;;0.30;0.30;;;;;;;13.54;73.00;101164.03;6250335;28;20042;-79
2021/10/06 12:16:19;;;;;;;1.02;0.35;;;;;;;13.63;74.33;101151.16;6251370;28;20056;-79
2021/10/06 12:19:23;;;;;;;0.70;0.32;;;;;;;13.65;74.30;101158.97;6251790;28;20045;-79
2021/10/06 12:22:31;;;;;;;0.30;0.30;;;;;;;13.69;74.73;101158.69;6250785;28;20630;-79
2021/10/06 12:25:34;;;;;;;0.90;0.45;;;;;;;13.63;74.58;101164.34;6250490;28;20060;-78
2021/10/06 12:28:51;;;;;;;0.63;0.38;;;;;;;13.63;74.96;101166.16;6253890;28;20080;-77
2021/10/06 12:31:55;;;;;;;0.30;0.30;;;;;;;13.56;74.07;101165.63;6274017;28;20045;-77
2021/10/06 12:35:05;;;;;;;0.88;0.40;;;;;;;13.53;76.27;101176.38;6274775;28;20131;-80
2021/10/06 12:38:06;;;;;;;0.40;0.40;;;;;;;13.58;75.94;101179.63;6263202;28;20057;-79
2021/10/06 12:41:14;;;;;;;0.73;0.38;;;;;;;13.60;76.65;101177.72;6270872;28;20056;-79
2021/10/06 12:44:24;;;;;;;0.85;0.43;;;;;;;13.69;75.60;101186.91;6273780;28;20053;-80
2021/10/06 12:47:26;;;;;;;0.38;0.38;;;;;;;13.71;75.84;101188.50;6274169;28;20082;-80
2021/10/06 12:50:29;;;;;;;0.82;0.82;;;;;;;13.75;75.72;101189.16;6274237;28;20045;-80
2021/10/06 12:53:30;;;;;;;0.43;0.20;;;;;;;13.69;76.04;101187.75;6273899;28;20045;-79
2021/10/06 12:56:34;;;;;;;0.28;0.28;;;;;;;13.68;76.39;101208.97;6251167;28;20053;-79
2021/10/06 12:59:37;;;;;;;2.80;0.30;;;;;;;13.64;77.56;101207.44;6250777;28;20504;-79
2021/10/06 13:02:40;;;;;;;0.28;0.28;;;;;;;13.63;76.78;101200.47;6262571;28;20045;-80
2021/10/06 13:05:43;;;;;;;0.85;0.30;;;;;;;13.67;77.18;101220.47;6286497;28;20060;-79
2021/10/06 13:08:49;;;;;;;0.20;0.20;;;;;;;13.75;78.69;101222.66;6269554;28;20049;-80
2021/10/06 13:11:53;;;;;;;0.45;0.40;;;;;;;13.81;77.68;101224.97;6259642;28;20132;-80
2021/10/06 13:14:54;;;;;;;0.50;0.30;;;;;;;13.81;77.95;101224.97;6260183;28;20057;-79
2021/10/06 13:17:55;;;;;;;0.52;0.35;;;;;;;13.76;78.44;101232.28;6250010;28;20080;-79
2021/10/06 13:20:58;;;;;;;1.17;0.65;;;;;;;13.73;81.21;101238.59;6250657;28;20056;-79
2021/10/06 13:24:00;;;;;;;0.43;0.43;;;;;;;13.65;82.61;101236.41;6249628;28;20046;-79
2021/10/06 13:27:02;;;;;;;0.25;0.25;;;;;;;13.61;81.48;101236.66;6250604;28;20467;-80
2021/10/06 13:30:04;;;;;;;3.90;0.32;;;;;;;13.62;81.41;101244.50;6251003;28;20237;-79
2021/10/06 13:33:06;;;;;;;1.75;0.32;;;;;;;13.61;80.82;101244.59;6256821;28;20069;-79
2021/10/06 13:36:09;;;;;;;0.30;0.30;;;;;;;13.59;78.59;101247.34;6258937;28;20054;-78
2021/10/06 13:39:10;;;;;;;0.22;0.22;;;;;;;13.56;79.69;101251.94;6254581;28;20049;-76
2021/10/06 13:42:13;;;;;;;0.35;0.32;;;;;;;13.58;82.07;101253.56;6251214;28;20041;-79
2021/10/06 13:45:14;;;;;;;0.22;0.22;;;;;;;13.62;79.09;101259.50;6253558;28;20497;-79
2021/10/06 13:48:16;;;;;;;1.52;0.30;;;;;;;13.64;78.80;101266.41;6254242;28;20064;-79
2021/10/06 13:51:19;;;;;;;0.80;0.47;;;;;;;13.67;78.11;101271.53;6254110;28;20045;-80
2021/10/06 13:54:20;;;;;;;0.45;0.45;;;;;;;13.66;78.23;101276.88;6255650;28;20045;-80
2021/10/06 13:57:21;;;;;;;0.73;0.30;;;;;;;13.67;79.34;101281.19;6255183;28;20049;-79
2021/10/06 14:00:23;;;;;;;0.30;0.20;;;;;;;13.60;78.81;101275.44;6254486;28;20053;-79
2021/10/06 14:03:25;;;;;;;0.35;0.30;;;;;;;13.51;80.92;101289.16;6253819;28;20420;-78
2021/10/06 14:06:28;;;;;;;0.47;0.40;;;;;;;13.46;81.65;101293.88;6254554;28;20061;-79